createdAt,value
2023-03-07T00:05:56.349Z,9.50
2023-03-07T00:24:34.351Z,10.30
2023-03-07T00:43:11.868Z,9.60
2023-03-07T01:01:51.723Z,13.30
2023-03-07T01:20:35.451Z,11.30
2023-03-07T01:39:08.937Z,10.20
2023-03-07T01:57:46.928Z,9.20
2023-03-07T02:16:24.607Z,12.10
2023-03-07T02:53:40.238Z,11.30
2023-03-07T03:12:18.323Z,11.90
2023-03-07T03:30:57.476Z,9.40
2023-03-07T03:49:35.459Z,8.70
2023-03-07T04:08:14.708Z,10.70
2023-03-07T04:26:52.735Z,11.70
2023-03-07T04:45:29.872Z,10.80
2023-03-07T05:04:08.429Z,13.80
2023-03-07T05:22:46.684Z,13.60
2023-03-07T05:41:25.895Z,10.20
2023-03-07T06:00:03.028Z,14.90
2023-03-07T06:18:41.670Z,12.90
2023-03-07T06:37:21.342Z,11.50
2023-03-07T06:56:00.757Z,14.30
2023-03-07T07:14:40.522Z,12.00
2023-03-07T07:33:21.265Z,15.80
2023-03-07T07:52:01.824Z,14.60
2023-03-07T08:10:42.025Z,11.60
2023-03-07T08:29:23.649Z,13.70
2023-03-07T08:48:05.632Z,11.00
2023-03-07T09:06:48.337Z,11.70
2023-03-07T09:25:30.890Z,13.70
2023-03-07T09:44:13.934Z,14.50
2023-03-07T10:02:56.957Z,10.90
2023-03-07T10:21:37.190Z,13.30
2023-03-07T10:40:12.449Z,14.50
2023-03-07T10:58:46.999Z,11.20
2023-03-07T11:17:24.278Z,11.20
2023-03-07T11:36:03.292Z,10.70
2023-03-07T11:54:44.415Z,11.70
2023-03-07T12:13:26.642Z,12.30
2023-03-07T12:31:57.785Z,14.40
2023-03-07T12:50:35.924Z,15.30
2023-03-07T13:09:13.971Z,12.40
2023-03-07T13:27:51.809Z,15.80
2023-03-07T13:46:31.019Z,14.20
2023-03-07T14:05:09.772Z,14.30
2023-03-07T14:23:48.592Z,12.90
2023-03-07T14:42:27.711Z,11.50
2023-03-07T15:01:04.926Z,11.10
2023-03-07T15:19:42.067Z,12.20
2023-03-07T15:38:21.381Z,14.40
2023-03-07T15:56:56.433Z,16.10
2023-03-07T16:15:34.074Z,14.50
2023-03-07T16:34:13.883Z,7.90
2023-03-07T16:52:51.678Z,8.90
2023-03-07T17:30:12.887Z,7.80
2023-03-07T17:48:45.498Z,10.70
2023-03-07T18:07:23.958Z,13.50
2023-03-07T18:26:01.154Z,12.90
2023-03-07T18:44:40.553Z,12.40
2023-03-07T19:03:19.393Z,9.90
2023-03-07T19:21:58.105Z,7.30
2023-03-07T19:40:37.099Z,8.40
2023-03-07T19:59:16.397Z,7.70
2023-03-07T20:17:57.082Z,7.90
2023-03-07T20:36:36.526Z,7.80
2023-03-07T20:55:09.364Z,8.30
2023-03-07T21:13:44.731Z,10.10
2023-03-07T21:32:22.749Z,7.80
2023-03-07T21:51:00.870Z,7.10
2023-03-07T22:09:39.408Z,9.20
2023-03-07T22:46:56.031Z,6.40
2023-03-07T23:05:33.911Z,6.40
2023-03-07T23:24:17.504Z,7.30
2023-03-07T23:42:50.657Z,8.70
